createdAt,value
2024-05-09T00:00:38.803Z,14.72
2024-05-09T00:03:07.606Z,15.23
2024-05-09T00:05:35.021Z,14.46
2024-05-09T00:08:02.130Z,14.89
2024-05-09T00:10:35.787Z,14.67
2024-05-09T00:13:05.292Z,14.75
2024-05-09T00:15:32.363Z,15.00
2024-05-09T00:17:59.476Z,15.14
2024-05-09T00:20:35.061Z,14.95
2024-05-09T00:23:06.091Z,14.83
2024-05-09T00:25:33.088Z,14.80
2024-05-09T00:28:00.072Z,14.60
2024-05-09T00:30:33.603Z,14.36
2024-05-09T00:33:03.839Z,13.91
2024-05-09T00:35:31.367Z,14.37
2024-05-09T00:37:58.504Z,14.72
2024-05-09T00:40:35.179Z,14.96
2024-05-09T00:43:06.856Z,15.01
2024-05-09T00:45:33.927Z,15.10
2024-05-09T00:48:01.240Z,15.06
2024-05-09T00:50:35.643Z,14.92
2024-05-09T00:53:04.364Z,14.71
2024-05-09T00:55:31.333Z,14.63
2024-05-09T00:57:58.195Z,14.52
2024-05-09T01:00:31.824Z,14.36
2024-05-09T01:03:06.701Z,14.08
2024-05-09T01:05:35.045Z,14.21
2024-05-09T01:08:03.272Z,14.32
2024-05-09T01:10:34.286Z,14.28
2024-05-09T01:13:02.918Z,14.37
2024-05-09T01:15:30.514Z,14.05
2024-05-09T01:17:58.243Z,13.87
2024-05-09T01:20:36.952Z,13.79
2024-05-09T01:23:12.510Z,13.90
2024-05-09T01:25:41.000Z,13.83
2024-05-09T01:28:08.467Z,13.53
2024-05-09T01:30:37.513Z,13.78
2024-05-09T01:33:07.386Z,13.83
2024-05-09T01:35:36.771Z,13.75
2024-05-09T01:38:04.525Z,14.00
2024-05-09T01:40:38.692Z,13.34
2024-05-09T01:43:07.355Z,13.90
2024-05-09T01:45:34.543Z,14.19
2024-05-09T01:48:02.229Z,14.36
2024-05-09T01:50:37.934Z,14.13
2024-05-09T01:53:08.366Z,14.31
2024-05-09T01:55:35.435Z,14.33
2024-05-09T01:58:02.432Z,14.20
2024-05-09T02:00:38.028Z,14.00
2024-05-09T02:03:08.983Z,14.23
2024-05-09T02:05:36.532Z,13.68
2024-05-09T02:08:03.795Z,14.17
2024-05-09T02:10:32.965Z,14.33
2024-05-09T02:13:00.613Z,14.20
2024-05-09T02:15:27.571Z,14.17
2024-05-09T02:17:54.752Z,14.13
2024-05-09T02:20:30.490Z,13.94
2024-05-09T02:23:03.630Z,13.44
2024-05-09T02:25:30.891Z,13.73
2024-05-09T02:27:57.809Z,13.32
2024-05-09T02:30:34.899Z,13.02
2024-05-09T02:33:07.494Z,13.32
2024-05-09T02:35:35.029Z,13.30
2024-05-09T02:38:02.251Z,13.36
2024-05-09T02:40:36.389Z,13.61
2024-05-09T02:43:06.175Z,14.04
2024-05-09T02:45:33.853Z,13.97
2024-05-09T02:48:01.960Z,13.97
2024-05-09T02:50:36.975Z,13.70
2024-05-09T02:53:06.921Z,13.23
2024-05-09T02:55:34.452Z,13.44
2024-05-09T02:58:01.898Z,13.58
2024-05-09T03:00:37.177Z,13.85
2024-05-09T03:03:09.544Z,13.60
2024-05-09T03:05:38.712Z,13.36
2024-05-09T03:08:06.327Z,13.53
2024-05-09T03:10:36.619Z,13.25
2024-05-09T03:13:05.844Z,13.20
2024-05-09T03:15:33.366Z,13.50
2024-05-09T03:18:01.332Z,13.68
2024-05-09T03:20:34.055Z,13.74
2024-05-09T03:23:03.685Z,13.61
2024-05-09T03:25:31.635Z,13.73
2024-05-09T03:27:59.042Z,13.45
2024-05-09T03:30:35.707Z,13.51
2024-05-09T03:33:08.970Z,13.84
2024-05-09T03:35:36.627Z,13.39
2024-05-09T03:38:04.199Z,13.74
2024-05-09T03:40:31.644Z,13.80
2024-05-09T03:42:59.099Z,14.11
2024-05-09T03:45:26.491Z,14.12
2024-05-09T03:47:53.987Z,14.12
2024-05-09T03:50:29.456Z,13.83
2024-05-09T03:53:01.091Z,13.98
2024-05-09T03:55:28.695Z,13.88
2024-05-09T03:57:56.108Z,13.83
2024-05-09T04:00:31.155Z,14.04
2024-05-09T04:03:06.968Z,13.40
2024-05-09T04:05:36.523Z,13.99
2024-05-09T04:08:04.127Z,14.08
2024-05-09T04:10:34.121Z,14.42
2024-05-09T04:13:03.159Z,14.49
2024-05-09T04:15:31.138Z,14.52
2024-05-09T04:17:59.016Z,14.02
2024-05-09T04:22:57.053Z,14.29
2024-05-09T04:25:24.537Z,14.21
2024-05-09T04:27:51.932Z,13.86
2024-05-09T04:30:26.293Z,14.10
2024-05-09T04:33:02.540Z,14.05
2024-05-09T04:35:30.403Z,14.20
2024-05-09T04:37:57.907Z,14.34
2024-05-09T04:40:32.856Z,14.41
2024-05-09T04:43:03.419Z,14.37
2024-05-09T04:45:30.851Z,14.71
2024-05-09T04:47:58.573Z,14.18
2024-05-09T04:50:35.234Z,14.30
2024-05-09T04:53:06.125Z,14.41
2024-05-09T04:55:33.956Z,14.65
2024-05-09T04:58:01.420Z,14.60
2024-05-09T05:00:35.341Z,13.98
2024-05-09T05:03:05.241Z,14.56
2024-05-09T05:05:32.750Z,14.67
2024-05-09T05:08:00.260Z,14.49
2024-05-09T05:10:33.815Z,14.09
2024-05-09T05:13:03.697Z,13.93
2024-05-09T05:15:31.080Z,14.33
2024-05-09T05:17:58.688Z,14.27
2024-05-09T05:20:32.745Z,14.19
2024-05-09T05:23:01.364Z,14.42
2024-05-09T05:25:28.798Z,14.45
2024-05-09T05:27:56.256Z,14.43
2024-05-09T05:30:29.035Z,14.36
2024-05-09T05:33:00.635Z,14.32
2024-05-09T05:35:28.531Z,14.50
2024-05-09T05:37:56.068Z,14.23
2024-05-09T05:40:32.214Z,14.21
2024-05-09T05:43:07.072Z,14.40
2024-05-09T05:45:34.420Z,14.20
2024-05-09T05:48:01.902Z,14.24
2024-05-09T05:50:35.480Z,14.11
2024-05-09T05:53:04.911Z,14.16
2024-05-09T05:55:32.211Z,14.33
2024-05-09T05:57:59.513Z,14.33
2024-05-09T06:00:34.389Z,14.17
2024-05-09T06:03:05.658Z,13.85
2024-05-09T06:05:33.512Z,14.01
2024-05-09T06:08:01.082Z,14.49
2024-05-09T06:10:35.237Z,14.35
2024-05-09T06:13:06.590Z,14.38
2024-05-09T06:15:34.207Z,14.32
2024-05-09T06:18:02.106Z,14.25
2024-05-09T06:20:35.911Z,13.92
2024-05-09T06:23:06.173Z,14.03
2024-05-09T06:25:33.949Z,14.16
2024-05-09T06:28:01.282Z,14.22
2024-05-09T06:30:37.145Z,14.25
2024-05-09T06:33:07.858Z,14.53
2024-05-09T06:35:36.107Z,14.54
2024-05-09T06:38:03.676Z,14.33
2024-05-09T06:40:37.277Z,14.16
2024-05-09T06:43:06.744Z,14.32
2024-05-09T06:45:34.135Z,14.18
2024-05-09T06:48:01.553Z,14.23
2024-05-09T06:50:35.735Z,14.46
2024-05-09T06:53:05.518Z,14.45
2024-05-09T06:55:32.847Z,14.89
2024-05-09T06:58:00.197Z,14.94
2024-05-09T07:00:35.272Z,15.10
2024-05-09T07:03:06.812Z,14.87
2024-05-09T07:05:34.291Z,14.88
2024-05-09T07:08:01.193Z,14.66
2024-05-09T07:10:34.108Z,14.94
2024-05-09T07:13:02.286Z,15.34
2024-05-09T07:15:29.183Z,15.45
2024-05-09T07:17:56.397Z,14.81
2024-05-09T07:20:32.081Z,15.21
2024-05-09T07:23:01.806Z,15.34
2024-05-09T07:25:28.942Z,15.96
2024-05-09T07:27:55.909Z,15.95
2024-05-09T07:30:27.787Z,15.92
2024-05-09T07:33:00.624Z,15.84
2024-05-09T07:35:28.199Z,16.16
2024-05-09T07:37:55.229Z,15.95
2024-05-09T07:40:31.608Z,16.14
2024-05-09T07:43:02.407Z,15.96
2024-05-09T07:45:45.641Z,16.41
2024-05-09T07:49:45.410Z,16.38
2024-05-09T07:53:40.861Z,17.36
2024-05-09T07:56:12.173Z,17.36
2024-05-09T07:58:39.399Z,16.99
2024-05-09T08:01:06.739Z,17.22
2024-05-09T08:03:33.985Z,17.65
2024-05-09T08:06:01.722Z,17.75
2024-05-09T08:08:28.608Z,17.80
2024-05-09T08:10:55.586Z,17.72
2024-05-09T08:13:22.874Z,17.79
2024-05-09T08:15:49.996Z,17.78
2024-05-09T08:18:17.084Z,17.95
2024-05-09T08:20:44.023Z,17.69
2024-05-09T08:23:10.854Z,17.82
2024-05-09T08:25:37.696Z,17.39
2024-05-09T08:28:04.688Z,17.24
2024-05-09T08:30:36.804Z,17.89
2024-05-09T08:33:05.845Z,17.32
2024-05-09T08:35:33.486Z,17.71
2024-05-09T08:38:00.581Z,18.00
2024-05-09T08:40:33.709Z,18.11
2024-05-09T08:43:03.285Z,17.23
2024-05-09T08:45:30.396Z,17.00
2024-05-09T08:47:57.493Z,16.44
2024-05-09T08:50:32.159Z,15.96
2024-05-09T08:53:05.221Z,15.59
2024-05-09T08:55:32.114Z,15.58
2024-05-09T08:57:59.009Z,16.09
2024-05-09T09:00:33.983Z,15.72
2024-05-09T09:03:04.016Z,15.53
2024-05-09T09:05:31.215Z,15.22
2024-05-09T09:07:58.742Z,15.18
2024-05-09T09:10:31.887Z,15.51
2024-05-09T09:13:00.453Z,14.98
2024-05-09T09:15:28.133Z,15.04
2024-05-09T09:17:55.583Z,15.91
2024-05-09T09:20:28.699Z,15.51
2024-05-09T09:23:01.185Z,15.57
2024-05-09T09:25:28.466Z,15.35
2024-05-09T09:27:55.798Z,15.51
2024-05-09T09:30:34.470Z,15.10
2024-05-09T09:33:05.518Z,15.33
2024-05-09T09:35:33.128Z,14.97
2024-05-09T09:38:00.465Z,14.73
2024-05-09T09:40:32.151Z,15.23
2024-05-09T09:43:01.384Z,15.15
2024-05-09T09:45:28.795Z,15.60
2024-05-09T09:47:56.270Z,15.53
2024-05-09T09:50:31.348Z,15.58
2024-05-09T09:53:01.501Z,15.48
2024-05-09T09:55:28.904Z,15.07
2024-05-09T09:57:56.364Z,15.54
2024-05-09T10:00:29.936Z,14.81
2024-05-09T10:03:00.213Z,16.07
2024-05-09T10:05:28.012Z,15.52
2024-05-09T10:07:55.567Z,16.26
2024-05-09T10:10:30.033Z,16.42
2024-05-09T10:13:00.078Z,16.42
2024-05-09T10:15:27.739Z,16.25
2024-05-09T10:17:55.253Z,17.16
2024-05-09T10:20:27.929Z,17.00
2024-05-09T10:22:58.216Z,17.44
2024-05-09T10:25:25.556Z,17.62
2024-05-09T10:27:53.113Z,16.94
2024-05-09T10:30:25.992Z,18.05
2024-05-09T10:32:57.448Z,18.07
2024-05-09T10:35:24.863Z,17.88
2024-05-09T10:37:52.223Z,15.75
2024-05-09T10:40:25.901Z,16.87
2024-05-09T10:42:56.679Z,17.70
2024-05-09T10:45:24.141Z,16.91
2024-05-09T10:47:51.755Z,16.71
2024-05-09T10:50:25.715Z,17.18
2024-05-09T10:52:56.388Z,16.89
2024-05-09T10:55:23.798Z,17.18
2024-05-09T10:57:51.380Z,17.92
2024-05-09T11:00:27.393Z,16.39
2024-05-09T11:03:00.614Z,16.72
2024-05-09T11:05:28.223Z,17.55
2024-05-09T11:07:55.683Z,17.73
2024-05-09T11:10:27.840Z,18.57
2024-05-09T11:13:00.983Z,17.88
2024-05-09T11:15:28.369Z,18.32
2024-05-09T11:17:55.839Z,18.34
2024-05-09T11:20:29.406Z,18.34
2024-05-09T11:22:57.597Z,18.07
2024-05-09T11:25:25.083Z,17.36
2024-05-09T11:27:52.458Z,17.40
2024-05-09T11:32:50.034Z,18.30
2024-05-09T11:35:17.605Z,17.95
2024-05-09T11:37:44.972Z,18.00
2024-05-09T11:40:21.002Z,17.65
2024-05-09T11:42:53.386Z,18.08
2024-05-09T11:45:21.051Z,18.48
2024-05-09T11:47:48.625Z,18.41
2024-05-09T11:50:26.420Z,19.36
2024-05-09T11:52:57.226Z,19.39
2024-05-09T11:55:27.727Z,19.37
2024-05-09T11:57:56.105Z,20.59
2024-05-09T12:00:29.790Z,21.47
2024-05-09T12:03:03.967Z,19.87
2024-05-09T12:05:31.555Z,19.22
2024-05-09T12:07:58.945Z,19.05
2024-05-09T12:10:32.499Z,19.67
2024-05-09T12:13:04.197Z,19.33
2024-05-09T12:15:33.223Z,18.66
2024-05-09T12:18:03.416Z,19.43
2024-05-09T12:20:36.868Z,19.76
2024-05-09T12:23:06.756Z,20.26
2024-05-09T12:25:34.207Z,20.11
2024-05-09T12:28:01.694Z,21.14
2024-05-09T12:30:36.569Z,21.66
2024-05-09T12:33:07.099Z,21.99
2024-05-09T12:35:34.654Z,22.51
2024-05-09T12:38:02.031Z,21.90
2024-05-09T12:40:36.246Z,21.19
2024-05-09T12:43:05.648Z,21.08
2024-05-09T12:45:33.024Z,21.47
2024-05-09T12:48:00.559Z,22.64
2024-05-09T12:50:32.775Z,22.44
2024-05-09T12:53:03.631Z,22.24
2024-05-09T12:55:41.124Z,22.53
2024-05-09T12:58:16.478Z,22.85
2024-05-09T13:00:56.447Z,22.68
2024-05-09T13:03:31.467Z,22.76
2024-05-09T13:05:58.944Z,22.33
2024-05-09T13:08:26.369Z,21.83
2024-05-09T13:10:53.821Z,21.21
2024-05-09T13:13:21.386Z,22.83
2024-05-09T13:15:48.765Z,23.00
2024-05-09T13:18:20.766Z,24.23
2024-05-09T13:20:50.901Z,23.54
2024-05-09T13:23:26.260Z,22.39
2024-05-09T13:25:58.718Z,22.16
2024-05-09T13:28:26.938Z,22.36
2024-05-09T13:30:54.326Z,22.91
2024-05-09T13:33:21.849Z,22.78
2024-05-09T13:35:50.866Z,23.33
2024-05-09T13:38:18.206Z,22.80
2024-05-09T13:40:45.590Z,23.66
2024-05-09T13:43:12.638Z,24.28
2024-05-09T13:45:39.623Z,24.18
2024-05-09T13:48:06.877Z,24.04
2024-05-09T13:50:36.321Z,23.38
2024-05-09T13:53:03.987Z,23.17
2024-05-09T13:55:30.851Z,23.69
2024-05-09T13:57:57.790Z,23.97
2024-05-09T14:02:54.627Z,24.74
2024-05-09T14:05:21.706Z,25.23
2024-05-09T14:07:48.663Z,25.82
2024-05-09T14:10:22.954Z,25.61
2024-05-09T14:12:55.467Z,26.14
2024-05-09T14:15:22.394Z,26.78
2024-05-09T14:17:49.302Z,26.28
2024-05-09T14:20:23.862Z,26.49
2024-05-09T14:22:57.519Z,27.17
2024-05-09T14:25:24.463Z,27.01
2024-05-09T14:27:51.340Z,26.48
2024-05-09T14:30:25.962Z,26.75
2024-05-09T14:33:00.657Z,26.36
2024-05-09T14:35:27.611Z,26.28
2024-05-09T14:37:55.033Z,25.94
2024-05-09T14:40:35.574Z,26.39
2024-05-09T14:43:08.322Z,26.57
2024-05-09T14:45:35.970Z,26.75
2024-05-09T14:48:03.966Z,27.02
2024-05-09T14:50:36.931Z,27.14
2024-05-09T14:53:06.915Z,27.07
2024-05-09T14:55:34.906Z,26.95
2024-05-09T14:58:02.350Z,26.18
2024-05-09T15:00:35.476Z,26.86
2024-05-09T15:03:04.223Z,26.48
2024-05-09T15:05:31.659Z,26.65
2024-05-09T15:07:58.783Z,26.74
2024-05-09T15:10:33.809Z,27.79
2024-05-09T15:13:02.996Z,28.72
2024-05-09T15:15:30.203Z,29.77
2024-05-09T15:17:57.272Z,30.21
2024-05-09T15:20:31.446Z,30.25
2024-05-09T15:23:02.481Z,29.58
2024-05-09T15:25:29.646Z,30.21
2024-05-09T15:27:56.804Z,30.11
2024-05-09T15:30:30.332Z,30.55
2024-05-09T15:33:00.092Z,31.12
2024-05-09T15:35:27.270Z,30.57
2024-05-09T15:37:54.090Z,30.48
2024-05-09T15:40:30.612Z,29.90
2024-05-09T15:43:04.636Z,30.58
2024-05-09T15:45:31.668Z,30.37
2024-05-09T15:47:58.799Z,30.22
2024-05-09T15:50:35.429Z,30.87
2024-05-09T15:53:07.452Z,30.67
2024-05-09T15:55:35.134Z,30.94
2024-05-09T15:58:02.797Z,31.73
2024-05-09T16:00:37.056Z,31.80
2024-05-09T16:03:08.826Z,32.52
2024-05-09T16:05:37.462Z,32.87
2024-05-09T16:08:05.114Z,33.34
2024-05-09T16:10:34.096Z,32.92
2024-05-09T16:13:03.094Z,32.96
2024-05-09T16:15:31.164Z,33.53
2024-05-09T16:17:58.683Z,32.64
2024-05-09T16:20:34.538Z,32.96
2024-05-09T16:23:06.987Z,32.64
2024-05-09T16:25:34.296Z,34.19
2024-05-09T16:28:02.006Z,32.63
2024-05-09T16:30:34.804Z,32.29
2024-05-09T16:33:04.048Z,32.84
2024-05-09T16:35:32.253Z,32.87
2024-05-09T16:37:59.603Z,31.69
2024-05-09T16:40:36.086Z,31.25
2024-05-09T16:43:07.600Z,31.20
2024-05-09T16:45:35.454Z,32.89
2024-05-09T16:48:02.940Z,33.90
2024-05-09T16:50:33.381Z,34.11
2024-05-09T16:53:02.528Z,32.65
2024-05-09T16:55:30.032Z,32.34
2024-05-09T16:57:58.530Z,33.18
2024-05-09T17:00:38.109Z,33.95
2024-05-09T17:03:10.180Z,33.57
2024-05-09T17:05:38.461Z,33.38
2024-05-09T17:08:06.070Z,32.68
2024-05-09T17:10:35.098Z,31.85
2024-05-09T17:13:04.013Z,31.48
2024-05-09T17:15:32.479Z,31.17
2024-05-09T17:18:00.127Z,30.25
2024-05-09T17:20:33.101Z,30.22
2024-05-09T17:23:03.364Z,29.35
2024-05-09T17:25:30.735Z,28.67
2024-05-09T17:27:58.292Z,27.98
2024-05-09T17:30:32.287Z,28.12
2024-05-09T17:33:03.413Z,28.21
2024-05-09T17:35:30.390Z,27.72
2024-05-09T17:37:57.277Z,27.92
2024-05-09T17:40:31.446Z,27.89
2024-05-09T17:43:02.490Z,27.79
2024-05-09T17:45:29.864Z,26.55
2024-05-09T17:47:57.056Z,26.16
2024-05-09T17:50:30.854Z,25.29
2024-05-09T17:53:02.136Z,24.53
2024-05-09T17:55:30.405Z,23.73
2024-05-09T17:57:57.826Z,22.80
2024-05-09T18:00:36.086Z,22.90
2024-05-09T18:03:06.857Z,22.09
2024-05-09T18:05:34.136Z,22.19
2024-05-09T18:08:01.174Z,22.22
2024-05-09T18:10:35.198Z,21.75
2024-05-09T18:13:05.399Z,22.00
2024-05-09T18:15:32.893Z,21.61
2024-05-09T18:18:00.173Z,21.90
2024-05-09T18:20:37.203Z,22.25
2024-05-09T18:23:09.564Z,22.32
2024-05-09T18:25:36.404Z,22.18
2024-05-09T18:28:03.400Z,21.86
2024-05-09T18:30:34.942Z,21.75
2024-05-09T18:33:04.576Z,21.46
2024-05-09T18:35:32.907Z,21.69
2024-05-09T18:38:00.215Z,21.48
2024-05-09T18:40:33.221Z,21.60
2024-05-09T18:43:03.793Z,21.23
2024-05-09T18:45:31.333Z,21.05
2024-05-09T18:47:58.738Z,21.10
2024-05-09T18:50:34.336Z,21.09
2024-05-09T18:53:05.276Z,21.21
2024-05-09T18:55:32.561Z,20.89
2024-05-09T18:58:00.016Z,20.99
2024-05-09T19:00:34.340Z,20.96
2024-05-09T19:03:06.237Z,21.02
2024-05-09T19:05:34.243Z,20.79
2024-05-09T19:08:01.987Z,20.54
2024-05-09T19:10:34.056Z,20.57
2024-05-09T19:13:06.769Z,20.41
2024-05-09T19:15:37.738Z,20.54
2024-05-09T19:18:04.881Z,20.57
2024-05-09T19:20:34.675Z,20.42
2024-05-09T19:23:03.170Z,20.28
2024-05-09T19:25:30.324Z,20.11
2024-05-09T19:27:57.264Z,20.20
2024-05-09T19:30:32.920Z,19.80
2024-05-09T19:33:05.365Z,19.95
2024-05-09T19:35:32.462Z,20.01
2024-05-09T19:37:59.386Z,19.77
2024-05-09T19:40:31.370Z,19.73
2024-05-09T19:43:00.528Z,19.39
2024-05-09T19:45:27.677Z,19.59
2024-05-09T19:47:54.738Z,19.59
2024-05-09T19:50:30.256Z,19.52
2024-05-09T19:53:03.336Z,19.70
2024-05-09T19:55:30.204Z,19.53
2024-05-09T19:57:57.827Z,19.70
2024-05-09T20:00:32.566Z,19.54
2024-05-09T20:03:02.783Z,19.48
2024-05-09T20:05:29.987Z,19.32
2024-05-09T20:07:56.887Z,19.38
2024-05-09T20:10:26.819Z,19.40
2024-05-09T20:13:01.270Z,19.46
2024-05-09T20:15:28.799Z,19.48
2024-05-09T20:17:56.380Z,19.38
2024-05-09T20:20:32.715Z,19.38
2024-05-09T20:23:05.229Z,19.29
2024-05-09T20:25:32.531Z,19.09
2024-05-09T20:27:59.906Z,19.01
2024-05-09T20:30:32.154Z,19.06
2024-05-09T20:33:05.321Z,18.93
2024-05-09T20:35:34.700Z,18.79
2024-05-09T20:38:03.509Z,18.45
2024-05-09T20:40:36.017Z,18.51
2024-05-09T20:43:06.667Z,18.75
2024-05-09T20:45:35.063Z,18.58
2024-05-09T20:48:02.775Z,18.40
2024-05-09T20:50:37.439Z,18.96
2024-05-09T20:53:07.978Z,18.71
2024-05-09T20:55:35.332Z,18.69
2024-05-09T20:58:02.724Z,19.02
2024-05-09T21:00:38.192Z,18.91
2024-05-09T21:03:09.472Z,19.12
2024-05-09T21:05:37.210Z,18.40
2024-05-09T21:08:04.760Z,18.32
2024-05-09T21:10:35.148Z,18.63
2024-05-09T21:13:03.601Z,18.44
2024-05-09T21:15:31.781Z,18.42
2024-05-09T21:17:59.507Z,17.97
2024-05-09T21:20:31.823Z,17.62
2024-05-09T21:23:00.649Z,17.61
2024-05-09T21:25:28.104Z,16.76
2024-05-09T21:27:55.670Z,17.67
2024-05-09T21:30:32.467Z,18.05
2024-05-09T21:33:07.998Z,18.10
2024-05-09T21:35:35.568Z,18.13
2024-05-09T21:38:02.874Z,18.16
2024-05-09T21:40:34.436Z,18.29
2024-05-09T21:43:03.603Z,18.25
2024-05-09T21:45:31.302Z,18.38
2024-05-09T21:47:58.960Z,18.39
2024-05-09T21:50:36.301Z,18.54
2024-05-09T21:53:07.691Z,18.47
2024-05-09T21:55:35.150Z,18.56
2024-05-09T21:58:03.061Z,18.43
2024-05-09T22:00:36.537Z,18.36
2024-05-09T22:03:06.189Z,18.35
2024-05-09T22:05:34.035Z,18.17
2024-05-09T22:08:01.779Z,17.81
2024-05-09T22:10:33.888Z,17.74
2024-05-09T22:13:05.422Z,17.87
2024-05-09T22:15:33.359Z,17.32
2024-05-09T22:18:00.782Z,17.68
2024-05-09T22:20:34.536Z,17.89
2024-05-09T22:23:05.433Z,17.97
2024-05-09T22:25:33.294Z,17.95
2024-05-09T22:28:01.164Z,17.96
2024-05-09T22:30:35.786Z,17.88
2024-05-09T22:33:06.585Z,17.94
2024-05-09T22:35:34.247Z,17.56
2024-05-09T22:38:01.591Z,17.54
2024-05-09T22:40:38.558Z,17.63
2024-05-09T22:43:14.090Z,17.65
2024-05-09T22:45:41.620Z,17.84
2024-05-09T22:48:09.398Z,17.93
2024-05-09T22:50:36.847Z,17.89
2024-05-09T22:53:07.070Z,17.83
2024-05-09T22:55:34.400Z,17.86
2024-05-09T22:58:01.879Z,17.88
2024-05-09T23:00:32.057Z,17.83
2024-05-09T23:03:00.566Z,17.64
2024-05-09T23:05:28.326Z,17.49
2024-05-09T23:07:55.876Z,17.56
2024-05-09T23:10:31.069Z,17.57
2024-05-09T23:13:05.001Z,17.39
2024-05-09T23:15:32.633Z,17.47
2024-05-09T23:18:00.150Z,17.37
2024-05-09T23:20:35.371Z,17.05
2024-05-09T23:23:05.539Z,17.27
2024-05-09T23:25:32.866Z,16.90
2024-05-09T23:28:00.319Z,16.90
2024-05-09T23:30:36.256Z,17.14
2024-05-09T23:33:06.941Z,17.28
2024-05-09T23:35:34.558Z,17.42
2024-05-09T23:38:02.044Z,17.55
2024-05-09T23:40:37.917Z,17.50
2024-05-09T23:43:07.879Z,17.44
2024-05-09T23:45:35.778Z,17.23
2024-05-09T23:48:03.711Z,17.29
2024-05-09T23:50:35.693Z,17.07
2024-05-09T23:53:08.316Z,17.30
2024-05-09T23:55:37.031Z,17.42
2024-05-09T23:58:04.723Z,16.91
